Time;durP1;ratioP1;P1;durP2;ratioP2;P2;SDS_P1;SDS_P2;PMS_P1;PMS_P2;Temp;Humidity;BMP_temperature;BMP_pressure;BME280_temperature;BME280_humidity;BME280_pressure;Samples;Min_cycle;Max_cycle;Signal;HPM_P1;HPM_P2
2021/11/15 00:01:18;;;;;;;28.60;17.13;;;7.30;99.90;;;6.47;100.00;61669.84;5075285;28;20068;-74
2021/11/15 00:03:46;;;;;;;26.70;16.63;;;7.30;99.90;;;6.46;100.00;61668.63;5081453;28;20497;-75
2021/11/15 00:06:13;;;;;;;25.48;16.58;;;7.30;99.90;;;6.45;100.00;61667.44;5084731;28;20060;-75
2021/11/15 00:08:40;;;;;;;28.65;16.50;;;7.30;99.90;;;6.44;100.00;61666.25;5087689;28;20143;-74
2021/11/15 00:11:07;;;;;;;25.77;16.63;;;7.30;99.90;;;6.42;100.00;61664.75;5084958;28;20123;-74
2021/11/15 00:13:35;;;;;;;29.60;16.17;;;7.30;99.90;;;6.41;100.00;61662.94;5068595;28;20040;-74
2021/11/15 00:16:02;;;;;;;26.08;16.77;;;7.20;99.90;;;6.39;100.00;61661.88;5081871;28;20118;-74
2021/11/15 00:18:29;;;;;;;26.20;16.95;;;7.20;99.90;;;6.38;100.00;61660.78;5080190;28;20210;-74
2021/11/15 00:20:56;;;;;;;24.38;15.32;;;7.30;99.90;;;6.37;100.00;61659.53;5075837;28;20132;-73
2021/11/15 00:23:23;;;;;;;23.70;15.32;;;7.30;99.90;;;6.36;100.00;61658.31;5078635;28;20068;-74
2021/11/15 00:25:50;;;;;;;27.73;17.80;;;7.30;99.90;;;6.35;100.00;61657.13;5062580;28;20105;-74
2021/11/15 00:28:18;;;;;;;21.55;15.43;;;7.20;99.90;;;6.34;100.00;61656.31;5067802;28;20104;-74
2021/11/15 00:30:45;;;;;;;27.17;18.23;;;7.30;99.90;;;6.33;100.00;61655.38;5069339;28;20082;-75
2021/11/15 00:33:12;;;;;;;25.65;16.38;;;7.20;99.90;;;6.32;100.00;61654.56;5060157;28;20075;-74
2021/11/15 00:35:39;;;;;;;27.80;17.15;;;7.20;99.90;;;6.31;100.00;61653.78;5060699;28;20102;-75
2021/11/15 00:38:06;;;;;;;27.52;18.05;;;7.20;99.90;;;6.30;100.00;61652.72;5065750;28;20119;-73
2021/11/15 00:40:33;;;;;;;28.08;17.42;;;7.20;99.90;;;6.29;100.00;61651.75;5067851;28;20048;-75
2021/11/15 00:43:00;;;;;;;25.15;16.38;;;7.20;99.90;;;6.29;100.00;61651.53;5065779;28;20135;-73
2021/11/15 00:45:27;;;;;;;32.03;19.13;;;7.20;99.90;;;6.28;100.00;61650.72;5064243;28;20143;-73
2021/11/15 00:47:54;;;;;;;27.90;17.08;;;7.20;99.90;;;6.27;100.00;61649.91;5083902;28;20048;-74
2021/11/15 00:50:22;;;;;;;28.77;16.95;;;7.30;99.90;;;6.27;100.00;61649.94;5073247;28;20417;-74
2021/11/15 00:52:51;;;;;;;26.70;17.38;;;7.30;99.90;;;6.27;100.00;61650.09;5062044;28;20075;-73
2021/11/15 00:55:20;;;;;;;27.08;17.02;;;7.30;99.90;;;6.27;100.00;61650.09;5053387;28;20072;-73
2021/11/15 00:57:47;;;;;;;26.40;17.10;;;7.30;99.90;;;6.27;100.00;61650.50;5057114;28;20530;-74
2021/11/15 01:00:23;;;;;;;25.73;17.25;;;7.40;99.90;;;6.27;100.00;61650.25;5075518;28;20070;-72
2021/11/15 01:02:51;;;;;;;25.20;17.63;;;7.30;99.90;;;6.27;100.00;61649.63;5069132;28;20059;-74
2021/11/15 01:05:18;;;;;;;28.55;17.65;;;7.30;99.90;;;6.26;100.00;61649.25;5059778;28;20207;-74
2021/11/15 01:07:46;;;;;;;30.02;17.58;;;7.20;99.90;;;6.26;100.00;61648.72;5064654;28;20076;-74
2021/11/15 01:10:17;;;;;;;28.05;18.23;;;7.20;99.90;;;6.26;100.00;61648.59;5076372;28;20067;-73
2021/11/15 01:12:45;;;;;;;27.83;17.75;;;7.20;99.90;;;6.26;100.00;61648.44;5082169;28;20114;-75
2021/11/15 01:15:18;;;;;;;27.85;18.73;;;7.20;99.90;;;6.25;100.00;61647.84;5067896;28;20525;-74
2021/11/15 01:17:46;;;;;;;31.48;18.83;;;7.20;99.90;;;6.25;100.00;61647.47;5087481;28;20189;-74
2021/11/15 01:20:17;;;;;;;26.77;18.02;;;7.20;99.90;;;6.25;100.00;61647.34;5069453;28;20446;-74
2021/11/15 01:22:44;;;;;;;30.40;18.02;;;7.20;99.90;;;6.25;100.00;61647.31;5087481;28;20109;-74
2021/11/15 01:25:11;;;;;;;30.10;19.85;;;7.30;99.90;;;6.25;100.00;61647.19;5068611;28;20131;-74
2021/11/15 01:27:39;;;;;;;33.15;20.00;;;7.30;99.90;;;6.24;100.00;61646.63;5077312;28;20116;-74
2021/11/15 01:30:12;;;;;;;26.70;17.58;;;7.30;99.90;;;6.24;100.00;61646.53;5066203;28;20084;-74
2021/11/15 01:32:41;;;;;;;30.08;17.73;;;7.20;99.90;;;6.24;100.00;61646.84;5086307;28;20040;-73
2021/11/15 01:35:09;;;;;;;27.80;18.40;;;7.30;99.90;;;6.24;100.00;61646.97;5068508;28;20498;-74
2021/11/15 01:37:38;;;;;;;28.85;18.42;;;7.20;99.90;;;6.24;100.00;61647.22;5069559;28;20127;-74
2021/11/15 01:40:10;;;;;;;26.50;17.35;;;7.20;99.90;;;6.24;100.00;61647.22;5071897;28;20044;-74
2021/11/15 01:42:38;;;;;;;29.27;19.13;;;7.30;99.90;;;6.24;100.00;61646.84;5088881;28;20390;-74
2021/11/15 01:45:08;;;;;;;28.48;17.63;;;7.20;99.90;;;6.23;100.00;61646.16;5069870;28;20076;-73
2021/11/15 01:47:35;;;;;;;26.55;17.10;;;7.20;99.90;;;6.23;100.00;61646.00;5058716;28;20128;-74
2021/11/15 01:50:06;;;;;;;26.52;17.98;;;7.20;99.90;;;6.23;100.00;61645.66;5078667;28;20040;-74
2021/11/15 01:52:33;;;;;;;25.90;18.75;;;7.30;99.90;;;6.23;100.00;61645.56;5059056;28;20140;-74
2021/11/15 01:55:00;;;;;;;28.63;18.67;;;7.20;99.90;;;6.22;100.00;61644.88;5084699;28;20045;-73
2021/11/15 01:57:27;;;;;;;32.50;20.38;;;7.20;99.90;;;6.22;100.00;61644.78;5090645;28;20048;-75
2021/11/15 01:59:54;;;;;;;29.48;19.15;;;7.20;99.90;;;6.22;100.00;61644.06;5079441;28;20050;-74
2021/11/15 02:02:26;;;;;;;27.13;18.13;;;7.20;99.90;;;6.22;100.00;61643.91;5062330;28;20084;-74
2021/11/15 02:04:57;;;;;;;30.33;19.70;;;7.30;99.90;;;6.21;100.00;61643.22;5067570;28;20102;-74
2021/11/15 02:07:25;;;;;;;28.88;19.08;;;7.20;99.90;;;6.20;100.00;61642.25;5066730;28;20095;-75
2021/11/15 02:09:53;;;;;;;33.30;20.83;;;7.20;99.90;;;6.20;100.00;61641.69;5090180;28;20138;-75
2021/11/15 02:12:20;;;;;;;27.23;18.33;;;7.10;99.90;;;6.19;100.00;61640.72;5071192;28;20844;-75
2021/11/15 02:14:47;;;;;;;27.73;17.90;;;7.20;99.90;;;6.18;100.00;61640.22;5090162;28;20113;-74
2021/11/15 02:17:14;;;;;;;31.08;18.70;;;7.20;99.90;;;6.17;100.00;61639.44;5093132;28;20139;-74
2021/11/15 02:19:43;;;;;;;27.45;18.17;;;7.10;99.90;;;6.17;100.00;61638.91;5067931;28;20084;-74
2021/11/15 02:22:11;;;;;;;31.65;19.58;;;7.10;99.90;;;6.16;100.00;61638.38;5087913;28;20055;-74
2021/11/15 02:24:38;;;;;;;28.48;18.20;;;7.10;99.90;;;6.16;100.00;61637.78;5082996;28;20045;-74
2021/11/15 02:27:06;;;;;;;29.55;18.10;;;7.10;99.90;;;6.15;100.00;61637.69;5089935;28;20078;-73
2021/11/15 02:29:33;;;;;;;31.50;19.70;;;7.10;99.90;;;6.15;100.00;61637.31;5071612;28;20506;-74
2021/11/15 02:31:59;;;;;;;24.83;16.70;;;7.10;99.90;;;6.15;100.00;61637.31;5084532;28;20194;-74
2021/11/15 02:34:26;;;;;;;26.55;18.05;;;7.20;99.90;;;6.15;100.00;61637.75;5087031;28;20084;-74
2021/11/15 02:36:55;;;;;;;31.08;19.80;;;7.20;99.90;;;6.15;100.00;61637.59;5069615;28;20095;-74
2021/11/15 02:39:22;;;;;;;25.50;16.83;;;7.20;99.90;;;6.15;100.00;61637.16;5082914;28;20514;-74
2021/11/15 02:41:49;;;;;;;28.48;18.92;;;7.20;99.90;;;6.15;100.00;61637.00;5087501;28;20044;-73
2021/11/15 02:44:16;;;;;;;26.17;17.55;;;7.10;99.90;;;6.15;100.00;61637.00;5082217;28;20140;-74
2021/11/15 02:46:43;;;;;;;24.15;16.65;;;7.20;99.90;;;6.15;100.00;61637.00;5086988;28;20139;-73
2021/11/15 02:49:10;;;;;;;33.80;19.75;;;7.20;99.90;;;6.16;100.00;61637.81;5090751;28;20048;-74
2021/11/15 02:51:38;;;;;;;26.80;17.23;;;7.20;99.90;;;6.15;100.00;61637.38;5059903;28;20048;-74
2021/11/15 02:54:05;;;;;;;25.42;16.42;;;7.10;99.90;;;6.15;100.00;61637.53;5076559;28;20127;-74
2021/11/15 02:56:31;;;;;;;31.25;18.45;;;7.10;99.90;;;6.15;100.00;61637.09;5087619;28;20320;-73
2021/11/15 02:58:58;;;;;;;30.15;18.45;;;7.10;99.90;;;6.15;100.00;61636.50;5073181;28;20134;-74
2021/11/15 03:01:26;;;;;;;27.83;17.17;;;7.10;99.90;;;6.14;100.00;61636.13;5067793;28;20076;-74
2021/11/15 03:03:53;;;;;;;29.33;18.48;;;7.10;99.90;;;6.14;100.00;61635.59;5088516;28;20252;-74
2021/11/15 03:06:20;;;;;;;29.63;18.55;;;7.10;99.90;;;6.13;100.00;61635.09;5086815;28;20083;-74
2021/11/15 03:08:47;;;;;;;27.83;17.15;;;7.10;99.90;;;6.13;100.00;61634.50;5077294;28;20199;-74
2021/11/15 03:11:14;;;;;;;27.67;18.10;;;7.10;99.90;;;6.12;100.00;61633.78;5077078;28;20151;-73
2021/11/15 03:13:46;;;;;;;29.75;19.55;;;7.10;99.90;;;6.12;100.00;61633.47;5052036;28;20052;-74
2021/11/15 03:16:13;;;;;;;29.67;19.65;;;7.10;99.90;;;6.11;100.00;61632.91;5076653;28;20063;-74
2021/11/15 03:18:43;;;;;;;30.20;20.17;;;7.10;99.90;;;6.10;100.00;61631.94;5089631;28;20097;-73
2021/11/15 03:21:13;;;;;;;33.65;20.20;;;7.00;99.90;;;6.10;100.00;61631.28;5073815;28;20098;-74
2021/11/15 03:23:43;;;;;;;30.27;18.73;;;7.00;99.90;;;6.09;100.00;61629.81;5078326;28;20185;-74
2021/11/15 03:26:12;;;;;;;30.10;17.45;;;7.10;99.90;;;6.08;100.00;61629.59;5096212;28;20075;-74
2021/11/15 03:28:44;;;;;;;29.20;18.27;;;7.10;99.90;;;6.08;100.00;61629.63;5089692;28;20071;-74
2021/11/15 03:31:24;;;;;;;32.08;20.05;;;7.00;99.90;;;6.07;100.00;61629.00;5079210;28;20084;-72
2021/11/15 03:34:00;;;;;;;26.90;17.02;;;7.00;99.90;;;6.07;100.00;61628.94;5069795;28;20131;-74
2021/11/15 03:36:28;;;;;;;31.88;18.92;;;7.10;99.90;;;6.07;100.00;61628.28;5067869;28;20051;-74
2021/11/15 03:38:56;;;;;;;29.17;19.45;;;7.00;99.90;;;6.06;100.00;61627.72;5075435;28;20048;-74
2021/11/15 03:41:26;;;;;;;31.13;19.95;;;7.10;99.90;;;6.06;100.00;61627.63;5089991;28;20139;-74
2021/11/15 03:43:53;;;;;;;30.10;19.02;;;7.00;99.90;;;6.06;100.00;61627.03;5089444;28;20075;-74
2021/11/15 03:46:20;;;;;;;32.05;20.00;;;7.10;99.90;;;6.06;100.00;61627.19;5089756;28;20126;-74
2021/11/15 03:48:47;;;;;;;25.85;16.75;;;7.00;99.90;;;6.06;100.00;61627.03;5062572;28;20083;-74
2021/11/15 03:51:14;;;;;;;27.58;17.98;;;7.10;99.90;;;6.06;100.00;61627.47;5088745;28;20075;-74
2021/11/15 03:53:41;;;;;;;25.00;17.33;;;7.20;99.90;;;6.05;100.00;61626.91;5082390;28;20142;-72
2021/11/15 03:56:12;;;;;;;29.77;18.67;;;7.10;99.90;;;6.05;100.00;61627.06;5075608;28;20245;-74
2021/11/15 03:58:41;;;;;;;26.15;17.40;;;7.10;99.90;;;6.05;100.00;61627.06;5087881;28;20117;-74
2021/11/15 04:01:09;;;;;;;24.25;16.80;;;7.10;99.90;;;6.05;100.00;61626.97;5079784;28;20040;-73
2021/11/15 04:03:39;;;;;;;24.40;16.35;;;7.10;99.90;;;6.05;100.00;61626.66;5078251;28;20056;-73
2021/11/15 04:06:27;;;;;;;29.92;19.30;;;7.20;99.90;;;6.05;100.00;61626.22;5079759;28;20509;-74
2021/11/15 04:09:01;;;;;;;29.58;17.80;;;7.10;99.90;;;6.05;100.00;61626.22;5067742;28;20454;-73
2021/11/15 04:11:31;;;;;;;29.33;18.20;;;7.20;99.90;;;6.05;100.00;61627.06;5086605;28;20479;-72
2021/11/15 04:14:08;;;;;;;27.40;17.35;;;7.10;99.90;;;6.06;100.00;61627.81;5091118;28;20315;-73
2021/11/15 04:16:35;;;;;;;28.83;18.65;;;7.10;99.90;;;6.06;100.00;61627.81;5080849;28;20066;-74
2021/11/15 04:19:12;;;;;;;28.42;17.92;;;7.10;99.90;;;6.05;100.00;61627.44;5081197;28;20044;-74
2021/11/15 04:21:41;;;;;;;23.98;16.27;;;7.10;99.90;;;6.05;100.00;61627.19;5089762;28;20067;-74
2021/11/15 04:24:08;;;;;;;32.33;19.38;;;7.10;99.90;;;6.05;100.00;61626.75;5075096;28;20568;-74
2021/11/15 04:26:35;;;;;;;24.63;16.30;;;7.10;99.90;;;6.05;100.00;61627.00;5090241;28;20139;-73
2021/11/15 04:29:02;;;;;;;26.38;16.38;;;7.10;99.90;;;6.05;100.00;61627.56;5076836;28;20082;-74
2021/11/15 04:31:29;;;;;;;24.27;15.13;;;7.20;99.90;;;6.07;100.00;61628.59;5084622;28;20119;-74
2021/11/15 04:33:56;;;;;;;26.42;16.80;;;7.20;99.90;;;6.07;100.00;61629.25;5088943;28;20090;-74
2021/11/15 04:36:23;;;;;;;27.67;17.60;;;7.20;99.90;;;6.08;100.00;61629.22;5091484;28;20131;-74
2021/11/15 04:38:51;;;;;;;26.15;16.48;;;7.20;99.90;;;6.08;100.00;61629.16;5092296;28;20576;-73
2021/11/15 04:41:18;;;;;;;28.65;17.90;;;7.20;99.90;;;6.08;100.00;61628.72;5076829;28;20090;-74
2021/11/15 04:43:45;;;;;;;30.08;19.20;;;7.10;99.90;;;6.07;100.00;61628.34;5086513;28;20060;-74
2021/11/15 04:46:12;;;;;;;30.08;18.15;;;7.10;99.90;;;6.07;100.00;61628.63;5082510;28;20091;-74
2021/11/15 04:48:40;;;;;;;25.38;17.27;;;7.10;99.90;;;6.07;100.00;61628.03;5092748;28;20455;-74
2021/11/15 04:51:07;;;;;;;27.55;17.00;;;7.20;99.90;;;6.07;100.00;61628.19;5091962;28;20170;-73
2021/11/15 04:53:34;;;;;;;27.65;17.50;;;7.20;99.90;;;6.08;100.00;61628.56;5074724;28;20071;-74
2021/11/15 04:56:01;;;;;;;29.48;18.73;;;7.20;99.90;;;6.07;100.00;61628.47;5091217;28;21821;-74
2021/11/15 04:58:28;;;;;;;28.88;18.23;;;7.20;99.90;;;6.07;100.00;61628.03;5093190;28;20121;-74
2021/11/15 05:00:55;;;;;;;28.38;18.33;;;7.10;99.90;;;6.07;100.00;61628.19;5083067;28;20131;-74
2021/11/15 05:03:24;;;;;;;25.38;16.23;;;7.10;99.90;;;6.07;100.00;61628.31;5092556;28;20208;-74
2021/11/15 05:05:51;;;;;;;33.78;18.42;;;7.10;99.90;;;6.07;100.00;61627.88;5070973;28;20075;-74
2021/11/15 05:08:18;;;;;;;30.55;19.50;;;7.00;99.90;;;6.07;100.00;61627.16;5091591;28;20421;-74
2021/11/15 05:10:46;;;;;;;31.25;19.00;;;7.10;99.90;;;6.06;100.00;61626.94;5091432;28;20074;-73
2021/11/15 05:13:13;;;;;;;26.10;17.73;;;7.10;99.90;;;6.05;100.00;61626.28;5072181;28;20589;-74
2021/11/15 05:15:40;;;;;;;28.70;18.20;;;7.00;99.90;;;6.05;100.00;61625.75;5088088;28;20069;-74
2021/11/15 05:18:07;;;;;;;28.00;17.85;;;7.10;99.90;;;6.04;100.00;61625.53;5074287;28;20041;-74
2021/11/15 05:20:34;;;;;;;31.80;18.38;;;7.00;99.90;;;6.04;100.00;61624.84;5068724;28;20154;-73
2021/11/15 05:23:01;;;;;;;29.35;17.55;;;7.00;99.90;;;6.03;100.00;61624.63;5091645;28;20079;-74
2021/11/15 05:25:28;;;;;;;31.92;18.88;;;7.00;99.90;;;6.02;100.00;61623.97;5095680;28;20043;-76
2021/11/15 05:27:56;;;;;;;29.08;18.55;;;7.00;99.90;;;6.02;100.00;61623.81;5093414;28;20123;-74
2021/11/15 05:30:23;;;;;;;31.17;18.48;;;7.00;99.90;;;6.02;100.00;61623.09;5091159;28;20151;-74
2021/11/15 05:32:54;;;;;;;32.97;19.48;;;7.00;99.90;;;6.01;100.00;61622.44;5081004;28;20482;-74
2021/11/15 05:35:23;;;;;;;30.73;17.35;;;7.00;99.90;;;6.01;100.00;61621.75;5074495;28;20076;-74
2021/11/15 05:37:53;;;;;;;29.58;18.67;;;6.90;99.90;;;6.00;100.00;61621.03;5092919;28;20071;-74
2021/11/15 05:40:22;;;;;;;30.80;18.15;;;6.90;99.90;;;6.00;100.00;61620.47;5073129;28;20066;-74
2021/11/15 05:42:51;;;;;;;30.58;18.83;;;6.90;99.90;;;5.99;100.00;61620.09;5077982;28;20071;-74
2021/11/15 05:45:19;;;;;;;31.45;19.02;;;6.90;99.90;;;5.99;100.00;61619.72;5092402;28;20158;-74
2021/11/15 05:47:46;;;;;;;25.70;17.70;;;7.00;99.90;;;5.99;100.00;61619.56;5083655;28;20402;-73
2021/11/15 05:50:15;;;;;;;29.15;18.73;;;7.00;99.90;;;5.98;100.00;61618.88;5073765;28;20123;-74
2021/11/15 05:52:43;;;;;;;27.65;18.10;;;7.00;99.90;;;5.97;100.00;61618.03;5092333;28;20097;-73
2021/11/15 05:55:16;;;;;;;30.67;18.98;;;7.00;99.90;;;5.97;100.00;61617.66;5091046;28;20079;-74
2021/11/15 05:57:44;;;;;;;30.25;18.52;;;7.00;99.90;;;5.96;100.00;61617.22;5096162;28;20098;-74
2021/11/15 06:00:16;;;;;;;29.00;18.83;;;7.00;99.90;;;5.96;100.00;61617.28;5074867;28;20509;-73
2021/11/15 06:02:43;;;;;;;30.83;18.95;;;7.00;99.90;;;5.96;100.00;61616.72;5088959;28;20054;-72
2021/11/15 06:05:11;;;;;;;30.38;18.50;;;7.00;99.90;;;5.95;100.00;61616.47;5081545;28;20052;-73
2021/11/15 06:07:38;;;;;;;32.90;19.73;;;7.00;99.90;;;5.95;100.00;61615.69;5074047;28;20109;-74
2021/11/15 06:10:07;;;;;;;30.52;18.88;;;6.90;99.90;;;5.95;100.00;61615.47;5073453;28;20195;-74
2021/11/15 06:12:37;;;;;;;29.73;19.15;;;7.00;99.90;;;5.94;100.00;61615.69;5074878;28;20102;-73
2021/11/15 06:15:09;;;;;;;27.25;17.70;;;7.00;99.90;;;5.94;100.00;61615.41;5053478;28;20437;-73
2021/11/15 06:17:38;;;;;;;29.73;17.30;;;7.00;99.90;;;5.94;100.00;61615.41;5084992;28;20036;-74
2021/11/15 06:20:06;;;;;;;29.70;19.60;;;7.00;99.90;;;5.94;100.00;61615.28;5057644;28;20555;-73
2021/11/15 06:22:34;;;;;;;31.10;19.42;;;6.90;99.90;;;5.94;100.00;61615.28;5053388;28;20139;-74
2021/11/15 06:25:00;;;;;;;34.88;18.83;;;7.00;99.90;;;5.93;100.00;61614.91;5069015;28;20135;-73
2021/11/15 06:27:27;;;;;;;33.28;19.90;;;6.90;99.90;;;5.93;100.00;61614.50;5090063;28;20079;-73
2021/11/15 06:29:54;;;;;;;34.30;20.42;;;6.90;99.90;;;5.92;100.00;61613.97;5092067;28;20076;-74
2021/11/15 06:32:22;;;;;;;31.05;18.00;;;6.90;99.90;;;5.92;100.00;61613.69;5054979;28;20127;-73
2021/11/15 06:34:49;;;;;;;30.52;19.23;;;6.90;99.90;;;5.92;100.00;61613.00;5089878;28;20048;-74
2021/11/15 06:37:16;;;;;;;29.58;18.23;;;6.90;99.90;;;5.91;100.00;61613.03;5089700;28;20459;-73
2021/11/15 06:39:43;;;;;;;28.10;17.42;;;6.90;99.90;;;5.91;100.00;61612.59;5091487;28;20047;-74
2021/11/15 06:42:12;;;;;;;30.88;18.42;;;7.00;99.90;;;5.91;100.00;61613.19;5090301;28;20134;-74
2021/11/15 06:44:39;;;;;;;32.00;18.38;;;7.00;99.90;;;5.91;100.00;61612.78;5073038;28;20462;-74
2021/11/15 06:47:07;;;;;;;32.00;18.83;;;6.90;99.90;;;5.91;100.00;61612.66;5059476;28;20056;-74
2021/11/15 06:49:35;;;;;;;32.25;17.45;;;6.90;99.90;;;5.91;100.00;61612.34;5080368;28;20082;-73
2021/11/15 06:52:04;;;;;;;30.95;18.85;;;6.90;99.90;;;5.91;100.00;61612.03;5090925;28;20075;-74
2021/11/15 06:54:31;;;;;;;32.97;17.95;;;7.00;99.90;;;5.91;100.00;61612.50;5077905;28;20442;-74
2021/11/15 06:56:58;;;;;;;30.42;17.92;;;7.00;99.90;;;5.91;100.00;61613.34;5052799;28;20582;-74
2021/11/15 06:59:25;;;;;;;28.13;17.08;;;7.00;99.90;;;5.92;100.00;61613.78;5063284;28;20072;-74
2021/11/15 07:01:52;;;;;;;31.35;18.02;;;7.00;99.90;;;5.92;100.00;61614.31;5057580;28;20048;-73
2021/11/15 07:04:19;;;;;;;31.20;18.10;;;7.10;99.90;;;5.93;100.00;61614.72;5078594;28;20549;-74
2021/11/15 07:06:46;;;;;;;26.63;16.42;;;7.10;99.90;;;5.94;100.00;61615.50;5090067;28;20532;-74
2021/11/15 07:09:14;;;;;;;31.92;19.00;;;7.10;99.90;;;5.94;100.00;61616.31;5084744;28;20513;-74
2021/11/15 07:11:41;;;;;;;31.05;18.50;;;7.10;99.90;;;5.95;100.00;61616.44;5090155;28;20063;-74
2021/11/15 07:14:08;;;;;;;28.38;17.00;;;7.00;99.90;;;5.95;100.00;61617.13;5087161;28;20056;-75
2021/11/15 07:16:36;;;;;;;29.90;18.17;;;7.10;99.90;;;5.95;100.00;61617.13;5092347;28;20090;-75
2021/11/15 07:19:04;;;;;;;32.95;18.38;;;7.00;99.90;;;5.95;100.00;61616.84;5087962;28;20427;-75
2021/11/15 07:21:31;;;;;;;29.08;17.85;;;7.00;99.90;;;5.95;100.00;61617.25;5096197;28;20067;-74
2021/11/15 07:23:58;;;;;;;30.92;18.98;;;7.00;99.90;;;5.95;100.00;61617.25;5071686;28;20107;-75
2021/11/15 07:26:25;;;;;;;25.92;16.98;;;7.00;99.90;;;5.96;100.00;61618.03;5090092;28;20151;-74
2021/11/15 07:28:53;;;;;;;26.48;16.77;;;7.00;99.90;;;5.97;100.00;61618.44;5096895;28;20142;-75
2021/11/15 07:31:21;;;;;;;30.52;18.40;;;7.00;99.90;;;5.97;100.00;61618.13;5076643;28;20143;-75
2021/11/15 07:33:48;;;;;;;25.55;16.88;;;7.00;99.90;;;5.97;100.00;61618.97;5089845;28;20047;-75
2021/11/15 07:36:16;;;;;;;27.65;16.38;;;7.00;99.90;;;5.97;100.00;61618.84;5089489;28;20080;-75
2021/11/15 07:38:44;;;;;;;31.33;19.00;;;7.00;99.90;;;5.97;100.00;61618.66;5090173;28;20044;-75
2021/11/15 07:41:11;;;;;;;33.38;18.92;;;7.00;99.90;;;5.97;100.00;61618.41;5056369;28;20511;-75
2021/11/15 07:43:38;;;;;;;31.77;18.13;;;7.00;99.90;;;5.97;100.00;61618.13;5088919;28;20103;-74
2021/11/15 07:46:05;;;;;;;29.67;18.17;;;6.90;99.90;;;5.96;100.00;61617.59;5081743;28;20474;-75
2021/11/15 07:48:32;;;;;;;25.65;16.42;;;7.00;99.90;;;5.96;100.00;61617.44;5092735;28;20464;-75
2021/11/15 07:51:00;;;;;;;24.80;16.58;;;7.00;99.90;;;5.96;100.00;61617.53;5102520;28;20478;-74
2021/11/15 07:53:30;;;;;;;27.27;17.48;;;7.00;99.90;;;5.97;100.00;61618.09;5089513;28;20090;-74
2021/11/15 07:55:57;;;;;;;27.98;16.70;;;7.10;99.90;;;5.97;100.00;61618.97;5070877;28;20037;-74
2021/11/15 07:58:24;;;;;;;26.42;15.98;;;7.10;99.90;;;5.98;100.00;61619.78;5084978;28;20048;-74
2021/11/15 08:00:52;;;;;;;26.23;16.80;;;7.10;99.90;;;5.99;100.00;61619.88;5071733;28;20127;-74
2021/11/15 08:03:20;;;;;;;24.02;15.65;;;7.10;99.90;;;5.99;100.00;61620.31;5064709;28;20049;-74
2021/11/15 08:05:47;;;;;;;28.05;16.95;;;7.10;99.90;;;5.99;100.00;61620.84;5081453;28;20075;-74
2021/11/15 08:08:14;;;;;;;26.58;16.40;;;7.10;99.90;;;5.99;100.00;61620.69;5066311;28;20048;-75
2021/11/15 08:10:42;;;;;;;25.20;15.93;;;7.10;99.90;;;6.00;100.00;61621.56;5088128;28;20075;-74
2021/11/15 08:13:09;;;;;;;23.58;14.88;;;7.10;99.90;;;6.00;100.00;61621.94;5071961;28;20055;-74
2021/11/15 08:15:36;;;;;;;27.05;16.92;;;7.10;99.90;;;6.01;100.00;61622.50;5069662;28;20540;-73
2021/11/15 08:18:05;;;;;;;27.95;16.52;;;7.10;99.90;;;6.01;100.00;61622.66;5090666;28;20518;-75
2021/11/15 08:20:36;;;;;;;24.73;15.57;;;7.10;99.90;;;6.01;100.00;61622.88;5064754;28;20524;-74
2021/11/15 08:23:14;;;;;;;28.35;16.17;;;7.10;99.90;;;6.02;100.00;61623.41;5077921;28;20048;-74
2021/11/15 08:26:26;;;;;;;27.25;15.75;;;7.10;99.90;;;6.02;100.00;61623.81;5062474;28;20052;-74
2021/11/15 08:29:14;;;;;;;25.92;15.68;;;7.20;99.90;;;6.03;100.00;61624.31;5088367;28;20474;-74
2021/11/15 08:31:44;;;;;;;24.33;15.20;;;7.20;99.90;;;6.04;100.00;61625.00;5089206;28;20467;-74
2021/11/15 08:34:12;;;;;;;28.60;17.60;;;7.20;99.90;;;6.04;100.00;61625.13;5088481;28;20135;-75
2021/11/15 08:36:42;;;;;;;24.95;15.00;;;7.10;99.90;;;6.05;100.00;61625.94;5089697;28;20048;-75
2021/11/15 08:39:14;;;;;;;25.50;15.35;;;7.20;99.90;;;6.05;100.00;61626.31;5076232;28;20067;-74
2021/11/15 08:41:47;;;;;;;25.75;15.63;;;7.10;99.90;;;6.05;100.00;61626.28;5088539;28;20047;-74
2021/11/15 08:44:17;;;;;;;26.95;16.25;;;7.20;99.90;;;6.06;100.00;61626.56;5070579;28;20048;-74
2021/11/15 08:46:47;;;;;;;22.83;15.45;;;7.20;99.90;;;6.06;100.00;61626.81;5071081;28;20075;-74
2021/11/15 08:49:19;;;;;;;23.30;14.75;;;7.20;99.90;;;6.06;100.00;61626.94;5067998;28;20052;-74
2021/11/15 08:51:47;;;;;;;27.77;16.20;;;7.10;99.90;;;6.06;100.00;61627.19;5069748;28;20080;-75
2021/11/15 08:54:18;;;;;;;24.58;14.60;;;7.10;99.90;;;6.07;100.00;61627.59;5066508;28;20176;-74
2021/11/15 08:56:58;;;;;;;24.38;15.75;;;7.20;99.90;;;6.08;100.00;61628.41;5088462;28;20080;-74
2021/11/15 08:59:45;;;;;;;31.88;16.02;;;7.20;99.90;;;6.09;100.00;61629.66;5081073;28;20442;-74
2021/11/15 09:02:13;;;;;;;25.83;16.20;;;7.30;99.90;;;6.10;100.00;61630.47;5089910;28;20101;-74
2021/11/15 09:04:41;;;;;;;23.60;14.02;;;7.30;99.90;;;6.11;100.00;61632.56;5070160;28;20052;-75
2021/11/15 09:07:08;;;;;;;22.15;13.77;;;7.30;99.90;;;6.13;100.00;61634.19;5050336;28;20459;-75
2021/11/15 09:09:36;;;;;;;23.73;14.77;;;7.40;99.90;;;6.15;100.00;61636.56;5067577;28;20056;-75
2021/11/15 09:12:06;;;;;;;23.60;15.27;;;7.40;99.90;;;6.15;100.00;61637.38;5070856;28;20079;-74
2021/11/15 09:14:33;;;;;;;22.80;14.57;;;7.40;99.90;;;6.17;100.00;61638.91;5058500;28;20076;-75
2021/11/15 09:17:00;;;;;;;28.13;16.35;;;7.30;99.90;;;6.17;100.00;61639.59;5078020;28;20063;-74
2021/11/15 09:19:27;;;;;;;22.58;14.60;;;7.40;99.90;;;6.18;100.00;61640.72;5065637;28;20128;-75
2021/11/15 09:21:55;;;;;;;24.65;15.02;;;7.40;99.90;;;6.18;100.00;61640.81;5081620;28;20135;-74
2021/11/15 09:24:24;;;;;;;24.98;15.93;;;7.40;99.90;;;6.20;100.00;61642.16;5086025;28;20378;-73
2021/11/15 09:26:51;;;;;;;28.00;17.20;;;7.40;99.90;;;6.20;100.00;61642.59;5057481;28;20084;-74
2021/11/15 09:29:19;;;;;;;26.00;15.95;;;7.30;99.90;;;6.20;100.00;61642.72;5054541;28;20084;-74
2021/11/15 09:31:46;;;;;;;25.00;16.13;;;7.40;99.90;;;6.21;100.00;61642.94;5066816;28;20123;-74
2021/11/15 09:34:14;;;;;;;23.25;15.13;;;7.40;99.90;;;6.21;100.00;61643.50;5058169;28;20037;-74
2021/11/15 09:36:42;;;;;;;24.77;15.27;;;7.40;99.90;;;6.22;100.00;61644.56;5070545;28;20152;-75
2021/11/15 09:39:10;;;;;;;22.55;14.40;;;7.40;99.90;;;6.23;100.00;61646.00;5057794;28;20128;-74
2021/11/15 09:41:37;;;;;;;24.17;15.85;;;7.50;99.90;;;6.24;100.00;61646.38;5074307;28;20480;-76
2021/11/15 09:44:05;;;;;;;21.45;13.80;;;7.40;99.90;;;6.24;100.00;61646.63;5092581;28;20134;-75
2021/11/15 09:46:33;;;;;;;23.90;14.48;;;7.50;99.90;;;6.25;100.00;61647.19;5101219;28;20545;-74
2021/11/15 09:49:09;;;;;;;23.35;15.15;;;7.40;99.90;;;6.25;100.00;61647.47;5091191;28;20131;-74
2021/11/15 09:51:46;;;;;;;23.98;14.30;;;7.40;99.90;;;6.25;100.00;61647.63;5075026;28;20047;-74
2021/11/15 09:54:16;;;;;;;22.58;14.55;;;7.30;99.90;;;6.25;100.00;61647.47;5074627;28;20127;-75
2021/11/15 09:56:44;;;;;;;22.52;14.05;;;7.30;99.90;;;6.25;100.00;61647.91;5092918;28;20079;-74
2021/11/15 09:59:11;;;;;;;27.35;15.55;;;7.40;99.90;;;6.25;100.00;61647.47;5090754;28;20082;-76
2021/11/15 10:01:48;;;;;;;24.48;14.38;;;7.30;99.90;;;6.25;100.00;61647.03;5092007;28;20052;-76
2021/11/15 10:04:18;;;;;;;24.73;13.80;;;7.30;99.90;;;6.25;100.00;61647.03;5077643;28;20126;-74
2021/11/15 10:06:48;;;;;;;20.90;13.70;;;7.30;99.90;;;6.25;100.00;61647.59;5047866;28;20456;-75
2021/11/15 10:09:32;;;;;;;22.45;14.70;;;7.40;99.90;;;6.26;100.00;61648.81;5101914;28;20109;-75
2021/11/15 10:12:15;;;;;;;24.55;14.95;;;7.40;99.90;;;6.26;100.00;61648.38;5086813;28;20040;-75
2021/11/15 10:15:06;;;;;;;24.10;15.65;;;7.30;99.90;;;6.25;100.00;61647.16;5068500;28;20516;-75
2021/11/15 10:17:43;;;;;;;25.52;14.73;;;7.20;99.90;;;6.23;100.00;61645.34;5088408;28;21122;-75
2021/11/15 10:20:11;;;;;;;29.52;15.48;;;7.20;99.90;;;6.23;100.00;61645.03;5090954;28;20076;-75